sensor_id;sensor_type;location;lat;lon;timestamp;pressure;altitude;pressure_sealevel;temperature;humidity
36834;BME280;48003;52.084;5.224;2023-02-12T00:02:10;103911.99999999999;;;11.38;72.66
36834;BME280;48003;52.084;5.224;2023-02-12T00:03:46;103914.00000000001;;;11.35;72.67
36834;BME280;48003;52.084;5.224;2023-02-12T00:05:24;103916.00000000001;;;11.31;72.72
36834;BME280;48003;52.084;5.224;2023-02-12T00:08:38;103914.00000000001;;;11.32;72.8
36834;BME280;48003;52.084;5.224;2023-02-12T00:10:15;103908.99999999999;;;11.38;72.66
36834;BME280;48003;52.084;5.224;2023-02-12T00:11:52;103907.0;;;11.48;72.23
36834;BME280;48003;52.084;5.224;2023-02-12T00:13:29;103915.00000000001;;;11.41;72.33
36834;BME280;48003;52.084;5.224;2023-02-12T00:16:44;103914.00000000001;;;11.39;72.47
36834;BME280;48003;52.084;5.224;2023-02-12T00:18:20;103915.00000000001;;;11.37;72.58
36834;BME280;48003;52.084;5.224;2023-02-12T00:19:56;103914.00000000001;;;11.3;72.78
36834;BME280;48003;52.084;5.224;2023-02-12T00:23:12;103915.00000000001;;;11.33;72.72
36834;BME280;48003;52.084;5.224;2023-02-12T00:24:48;103914.00000000001;;;11.35;72.59
36834;BME280;48003;52.084;5.224;2023-02-12T00:26:25;103914.00000000001;;;11.31;72.8
36834;BME280;48003;52.084;5.224;2023-02-12T00:29:38;103908.99999999999;;;11.27;72.92
36834;BME280;48003;52.084;5.224;2023-02-12T00:31:17;103911.99999999999;;;11.29;72.91
36834;BME280;48003;52.084;5.224;2023-02-12T00:32:54;103908.0;;;11.32;72.89
36834;BME280;48003;52.084;5.224;2023-02-12T00:34:31;103904.0;;;11.35;72.86
36834;BME280;48003;52.084;5.224;2023-02-12T00:37:49;103908.99999999999;;;11.38;72.7
36834;BME280;48003;52.084;5.224;2023-02-12T00:39:25;103906.0;;;11.36;72.69
36834;BME280;48003;52.084;5.224;2023-02-12T00:41:02;103905.0;;;11.34;72.83
36834;BME280;48003;52.084;5.224;2023-02-12T00:44:15;103897.0;;;11.45;72.52
36834;BME280;48003;52.084;5.224;2023-02-12T00:45:52;103898.0;;;11.36;72.7
36834;BME280;48003;52.084;5.224;2023-02-12T00:47:29;103900.0;;;11.34;72.83
36834;BME280;48003;52.084;5.224;2023-02-12T00:49:05;103899.0;;;11.46;72.16
36834;BME280;48003;52.084;5.224;2023-02-12T00:52:20;103905.0;;;11.41;72.49
36834;BME280;48003;52.084;5.224;2023-02-12T00:53:56;103902.0;;;11.37;72.52
36834;BME280;48003;52.084;5.224;2023-02-12T00:55:33;103899.0;;;11.36;72.47
36834;BME280;48003;52.084;5.224;2023-02-12T00:58:46;103899.0;;;11.34;72.47
36834;BME280;48003;52.084;5.224;2023-02-12T01:00:22;103903.0;;;11.37;72.52
36834;BME280;48003;52.084;5.224;2023-02-12T01:01:59;103906.0;;;11.36;72.34
36834;BME280;48003;52.084;5.224;2023-02-12T01:05:12;103908.99999999999;;;11.32;72.62
36834;BME280;48003;52.084;5.224;2023-02-12T01:06:49;103911.99999999999;;;11.29;72.67
36834;BME280;48003;52.084;5.224;2023-02-12T01:08:26;103908.99999999999;;;11.29;72.67
36834;BME280;48003;52.084;5.224;2023-02-12T01:10:04;103908.99999999999;;;11.44;72.22
36834;BME280;48003;52.084;5.224;2023-02-12T01:13:17;103907.0;;;11.43;71.95
36834;BME280;48003;52.084;5.224;2023-02-12T01:14:53;103914.00000000001;;;11.39;72.14
36834;BME280;48003;52.084;5.224;2023-02-12T01:16:30;103909.99999999999;;;11.34;72.2
36834;BME280;48003;52.084;5.224;2023-02-12T01:19:45;103907.0;;;11.32;72.28
36834;BME280;48003;52.084;5.224;2023-02-12T01:21:23;103907.0;;;11.43;71.91
36834;BME280;48003;52.084;5.224;2023-02-12T01:23:01;103901.0;;;11.52;71.66
36834;BME280;48003;52.084;5.224;2023-02-12T01:24:38;103902.0;;;11.45;71.83
36834;BME280;48003;52.084;5.224;2023-02-12T01:27:54;103906.0;;;11.36;72.27
36834;BME280;48003;52.084;5.224;2023-02-12T01:29:31;103906.0;;;11.28;72.47
36834;BME280;48003;52.084;5.224;2023-02-12T01:31:09;103900.0;;;11.32;72.33
36834;BME280;48003;52.084;5.224;2023-02-12T01:34:21;103901.0;;;11.27;72.55
36834;BME280;48003;52.084;5.224;2023-02-12T01:35:58;103899.0;;;11.26;72.61
36834;BME280;48003;52.084;5.224;2023-02-12T01:37:34;103901.0;;;11.19;72.91
36834;BME280;48003;52.084;5.224;2023-02-12T01:40:50;103902.0;;;11.19;72.8
36834;BME280;48003;52.084;5.224;2023-02-12T01:42:26;103908.0;;;11.2;72.7
36834;BME280;48003;52.084;5.224;2023-02-12T01:44:06;103904.0;;;11.23;72.77
36834;BME280;48003;52.084;5.224;2023-02-12T01:45:50;103899.0;;;11.23;72.91
36834;BME280;48003;52.084;5.224;2023-02-12T01:49:07;103907.0;;;11.31;72.72
36834;BME280;48003;52.084;5.224;2023-02-12T01:50:47;103911.99999999999;;;11.21;73.06
36834;BME280;48003;52.084;5.224;2023-02-12T01:52:27;103911.99999999999;;;11.16;73.22
36834;BME280;48003;52.084;5.224;2023-02-12T01:54:07;103908.99999999999;;;11.23;72.72
36834;BME280;48003;52.084;5.224;2023-02-12T01:57:26;103908.0;;;11.33;72.41
36834;BME280;48003;52.084;5.224;2023-02-12T01:59:04;103908.0;;;11.29;72.24
36834;BME280;48003;52.084;5.224;2023-02-12T02:00:42;103909.99999999999;;;11.22;72.41
36834;BME280;48003;52.084;5.224;2023-02-12T02:02:19;103907.0;;;11.34;72.06
36834;BME280;48003;52.084;5.224;2023-02-12T02:05:42;103903.0;;;11.28;72.22
36834;BME280;48003;52.084;5.224;2023-02-12T02:07:21;103906.0;;;11.18;72.5
36834;BME280;48003;52.084;5.224;2023-02-12T02:08:59;103902.0;;;11.1;72.77
36834;BME280;48003;52.084;5.224;2023-02-12T02:10:36;103902.0;;;11.07;72.89
36834;BME280;48003;52.084;5.224;2023-02-12T02:16:18;103897.0;;;11.17;72.75
36834;BME280;48003;52.084;5.224;2023-02-12T02:18:01;103901.0;;;11.23;72.36
36834;BME280;48003;52.084;5.224;2023-02-12T02:19:57;103904.0;;;11.25;72.3
36834;BME280;48003;52.084;5.224;2023-02-12T02:23:33;103901.0;;;11.32;72.23
36834;BME280;48003;52.084;5.224;2023-02-12T02:29:03;103900.0;;;11.24;72.24
36834;BME280;48003;52.084;5.224;2023-02-12T02:30:50;103898.0;;;11.16;72.59
36834;BME280;48003;52.084;5.224;2023-02-12T02:32:37;103898.0;;;11.21;72.39
36834;BME280;48003;52.084;5.224;2023-02-12T02:34:22;103894.0;;;11.18;72.47
36834;BME280;48003;52.084;5.224;2023-02-12T02:36:13;103900.0;;;11.11;72.77
36834;BME280;48003;52.084;5.224;2023-02-12T02:38:05;103897.0;;;11.06;73.14
36834;BME280;48003;52.084;5.224;2023-02-12T02:41:32;103896.0;;;11.1;73.05
36834;BME280;48003;52.084;5.224;2023-02-12T02:43:15;103896.0;;;11.28;72.49
36834;BME280;48003;52.084;5.224;2023-02-12T02:44:58;103896.0;;;11.22;72.62
36834;BME280;48003;52.084;5.224;2023-02-12T02:46:42;103890.00000000001;;;11.13;72.94
36834;BME280;48003;52.084;5.224;2023-02-12T02:48:25;103890.00000000001;;;11.07;73.08
36834;BME280;48003;52.084;5.224;2023-02-12T02:51:50;103888.00000000001;;;11.05;73.11
36834;BME280;48003;52.084;5.224;2023-02-12T02:53:34;103886.99999999999;;;11.02;73.24
36834;BME280;48003;52.084;5.224;2023-02-12T02:55:16;103883.99999999999;;;11.11;73.02
36834;BME280;48003;52.084;5.224;2023-02-12T02:56:58;103888.00000000001;;;11.07;73.0
36834;BME280;48003;52.084;5.224;2023-02-12T03:00:26;103886.99999999999;;;11.05;73.16
36834;BME280;48003;52.084;5.224;2023-02-12T03:02:12;103882.0;;;11.06;73.2
36834;BME280;48003;52.084;5.224;2023-02-12T03:03:57;103880.0;;;11.06;73.17
36834;BME280;48003;52.084;5.224;2023-02-12T03:05:39;103882.0;;;11.08;72.78
36834;BME280;48003;52.084;5.224;2023-02-12T03:07:20;103878.0;;;11.17;72.52
36834;BME280;48003;52.084;5.224;2023-02-12T03:10:47;103881.0;;;11.21;72.38
36834;BME280;48003;52.084;5.224;2023-02-12T03:12:32;103879.0;;;11.19;72.19
36834;BME280;48003;52.084;5.224;2023-02-12T03:14:15;103876.0;;;11.15;72.27
36834;BME280;48003;52.084;5.224;2023-02-12T03:15:59;103880.0;;;11.08;72.8
36834;BME280;48003;52.084;5.224;2023-02-12T03:17:40;103874.0;;;11.06;72.86
36834;BME280;48003;52.084;5.224;2023-02-12T03:21:04;103876.0;;;11.02;72.62
36834;BME280;48003;52.084;5.224;2023-02-12T03:22:46;103872.0;;;10.96;72.89
36834;BME280;48003;52.084;5.224;2023-02-12T03:24:30;103873.0;;;10.92;73.11
36834;BME280;48003;52.084;5.224;2023-02-12T03:26:13;103873.0;;;10.91;73.27
36834;BME280;48003;52.084;5.224;2023-02-12T03:29:39;103875.0;;;10.92;72.94
36834;BME280;48003;52.084;5.224;2023-02-12T03:31:24;103872.0;;;10.91;73.05
36834;BME280;48003;52.084;5.224;2023-02-12T03:33:14;103878.0;;;10.93;72.97
36834;BME280;48003;52.084;5.224;2023-02-12T03:35:05;103875.0;;;10.9;73.16
36834;BME280;48003;52.084;5.224;2023-02-12T03:36:51;103875.0;;;10.88;73.25
36834;BME280;48003;52.084;5.224;2023-02-12T03:38:35;103877.0;;;10.91;73.36
36834;BME280;48003;52.084;5.224;2023-02-12T03:42:01;103875.0;;;10.89;73.49
36834;BME280;48003;52.084;5.224;2023-02-12T03:43:46;103878.0;;;10.93;73.36
36834;BME280;48003;52.084;5.224;2023-02-12T03:45:35;103878.0;;;10.87;73.5
36834;BME280;48003;52.084;5.224;2023-02-12T03:47:21;103884.99999999999;;;10.84;73.8
36834;BME280;48003;52.084;5.224;2023-02-12T03:49:03;103879.0;;;10.99;73.33
36834;BME280;48003;52.084;5.224;2023-02-12T03:52:32;103880.0;;;11.06;72.8
36834;BME280;48003;52.084;5.224;2023-02-12T03:54:11;103889.00000000001;;;10.94;72.95
36834;BME280;48003;52.084;5.224;2023-02-12T03:55:54;103884.99999999999;;;10.89;73.02
36834;BME280;48003;52.084;5.224;2023-02-12T03:57:39;103893.0;;;10.91;73.17
36834;BME280;48003;52.084;5.224;2023-02-12T04:00:54;103890.00000000001;;;10.93;73.02
36834;BME280;48003;52.084;5.224;2023-02-12T04:02:30;103891.00000000001;;;10.89;73.28
36834;BME280;48003;52.084;5.224;2023-02-12T04:04:07;103893.0;;;10.89;73.48
36834;BME280;48003;52.084;5.224;2023-02-12T04:05:46;103893.0;;;10.93;73.41
36834;BME280;48003;52.084;5.224;2023-02-12T04:09:02;103892.0;;;11.05;73.06
36834;BME280;48003;52.084;5.224;2023-02-12T04:12:46;103896.0;;;10.97;72.91
36834;BME280;48003;52.084;5.224;2023-02-12T04:14:34;103899.0;;;11.06;72.74
36834;BME280;48003;52.084;5.224;2023-02-12T04:16:21;103904.0;;;11.1;72.41
36834;BME280;48003;52.084;5.224;2023-02-12T04:19:52;103908.99999999999;;;11.01;72.45
36834;BME280;48003;52.084;5.224;2023-02-12T04:21:45;103905.0;;;10.96;72.59
36834;BME280;48003;52.084;5.224;2023-02-12T04:23:40;103903.0;;;11.02;72.47
36834;BME280;48003;52.084;5.224;2023-02-12T04:25:36;103914.00000000001;;;11.02;72.36
36834;BME280;48003;52.084;5.224;2023-02-12T04:27:22;103914.00000000001;;;10.94;72.62
36834;BME280;48003;52.084;5.224;2023-02-12T04:29:09;103909.99999999999;;;10.94;72.47
36834;BME280;48003;52.084;5.224;2023-02-12T04:30:56;103908.99999999999;;;11.02;72.22
36834;BME280;48003;52.084;5.224;2023-02-12T04:34:25;103916.00000000001;;;10.98;72.45
36834;BME280;48003;52.084;5.224;2023-02-12T04:36:12;103917.0;;;10.9;72.92
36834;BME280;48003;52.084;5.224;2023-02-12T04:37:56;103921.0;;;10.86;73.0
36834;BME280;48003;52.084;5.224;2023-02-12T04:39:39;103925.0;;;10.82;72.97
36834;BME280;48003;52.084;5.224;2023-02-12T04:41:17;103926.0;;;10.8;72.77
36834;BME280;48003;52.084;5.224;2023-02-12T04:44:32;103925.0;;;10.81;72.64
36834;BME280;48003;52.084;5.224;2023-02-12T04:46:10;103926.0;;;10.87;72.28
36834;BME280;48003;52.084;5.224;2023-02-12T04:47:47;103924.0;;;10.98;72.0
36834;BME280;48003;52.084;5.224;2023-02-12T04:51:01;103928.0;;;10.88;72.28
36834;BME280;48003;52.084;5.224;2023-02-12T04:52:37;103932.0;;;10.8;72.23
36834;BME280;48003;52.084;5.224;2023-02-12T04:54:17;103927.0;;;11.07;71.5
36834;BME280;48003;52.084;5.224;2023-02-12T04:55:54;103925.0;;;11.17;70.94
36834;BME280;48003;52.084;5.224;2023-02-12T04:59:08;103925.0;;;11.16;70.89
36834;BME280;48003;52.084;5.224;2023-02-12T05:00:45;103922.0;;;11.27;70.66
36834;BME280;48003;52.084;5.224;2023-02-12T05:02:21;103925.0;;;11.29;70.5
36834;BME280;48003;52.084;5.224;2023-02-12T05:05:35;103926.0;;;11.32;70.55
36834;BME280;48003;52.084;5.224;2023-02-12T05:07:11;103924.0;;;11.21;70.69
36834;BME280;48003;52.084;5.224;2023-02-12T05:08:47;103925.0;;;11.12;70.74
36834;BME280;48003;52.084;5.224;2023-02-12T05:12:01;103929.0;;;11.05;71.0
36834;BME280;48003;52.084;5.224;2023-02-12T05:13:37;103928.0;;;10.96;71.72
36834;BME280;48003;52.084;5.224;2023-02-12T05:15:14;103927.0;;;10.95;71.92
36834;BME280;48003;52.084;5.224;2023-02-12T05:16:51;103927.0;;;11.03;71.41
36834;BME280;48003;52.084;5.224;2023-02-12T05:20:07;103928.0;;;11.03;71.66
36834;BME280;48003;52.084;5.224;2023-02-12T05:21:44;103922.0;;;11.08;71.27
36834;BME280;48003;52.084;5.224;2023-02-12T05:23:20;103925.0;;;11.03;70.97
36834;BME280;48003;52.084;5.224;2023-02-12T05:26:32;103923.0;;;11.08;70.83
36834;BME280;48003;52.084;5.224;2023-02-12T05:28:09;103923.0;;;11.17;70.41
36834;BME280;48003;52.084;5.224;2023-02-12T05:29:45;103928.0;;;11.19;69.8
36834;BME280;48003;52.084;5.224;2023-02-12T05:32:58;103931.0;;;11.0;70.08
36834;BME280;48003;52.084;5.224;2023-02-12T05:34:35;103930.0;;;10.98;70.25
36834;BME280;48003;52.084;5.224;2023-02-12T05:36:14;103927.0;;;10.94;70.33
36834;BME280;48003;52.084;5.224;2023-02-12T05:37:52;103930.0;;;10.86;70.53
36834;BME280;48003;52.084;5.224;2023-02-12T05:41:06;103933.0;;;10.84;70.58
36834;BME280;48003;52.084;5.224;2023-02-12T05:42:43;103929.0;;;10.89;70.44
36834;BME280;48003;52.084;5.224;2023-02-12T05:44:20;103933.0;;;10.88;70.41
36834;BME280;48003;52.084;5.224;2023-02-12T05:47:35;103933.99999999999;;;10.92;70.36
36834;BME280;48003;52.084;5.224;2023-02-12T05:49:11;103934.99999999999;;;11.04;69.89
36834;BME280;48003;52.084;5.224;2023-02-12T05:50:48;103938.00000000001;;;10.97;69.83
36834;BME280;48003;52.084;5.224;2023-02-12T05:52:24;103934.99999999999;;;10.97;69.86
36834;BME280;48003;52.084;5.224;2023-02-12T05:55:41;103933.99999999999;;;11.17;69.42
36834;BME280;48003;52.084;5.224;2023-02-12T05:57:17;103934.99999999999;;;11.09;69.47
36834;BME280;48003;52.084;5.224;2023-02-12T05:58:56;103936.99999999999;;;11.06;69.61
36834;BME280;48003;52.084;5.224;2023-02-12T06:02:10;103936.99999999999;;;11.0;69.74
36834;BME280;48003;52.084;5.224;2023-02-12T06:03:46;103933.0;;;10.94;70.24
36834;BME280;48003;52.084;5.224;2023-02-12T06:05:23;103929.0;;;10.9;70.44
36834;BME280;48003;52.084;5.224;2023-02-12T06:06:59;103933.99999999999;;;10.84;70.83
36834;BME280;48003;52.084;5.224;2023-02-12T06:10:13;103936.99999999999;;;10.88;71.08
36834;BME280;48003;52.084;5.224;2023-02-12T06:11:50;103941.00000000001;;;11.09;70.47
36834;BME280;48003;52.084;5.224;2023-02-12T06:13:27;103940.00000000001;;;11.11;69.74
36834;BME280;48003;52.084;5.224;2023-02-12T06:16:43;103938.00000000001;;;11.09;69.72
36834;BME280;48003;52.084;5.224;2023-02-12T06:18:20;103936.99999999999;;;11.13;69.61
36834;BME280;48003;52.084;5.224;2023-02-12T06:19:57;103939.00000000001;;;11.03;69.73
36834;BME280;48003;52.084;5.224;2023-02-12T06:23:10;103940.00000000001;;;10.98;70.3
36834;BME280;48003;52.084;5.224;2023-02-12T06:24:46;103933.99999999999;;;10.92;70.69
36834;BME280;48003;52.084;5.224;2023-02-12T06:26:23;103932.0;;;10.89;70.8
36834;BME280;48003;52.084;5.224;2023-02-12T06:28:01;103936.99999999999;;;10.86;71.09
36834;BME280;48003;52.084;5.224;2023-02-12T06:31:18;103936.99999999999;;;10.83;71.08
36834;BME280;48003;52.084;5.224;2023-02-12T06:32:55;103939.00000000001;;;10.82;71.58
36834;BME280;48003;52.084;5.224;2023-02-12T06:34:32;103940.00000000001;;;10.79;71.53
36834;BME280;48003;52.084;5.224;2023-02-12T06:37:45;103938.00000000001;;;10.75;71.59
36834;BME280;48003;52.084;5.224;2023-02-12T06:39:22;103938.00000000001;;;10.74;71.52
36834;BME280;48003;52.084;5.224;2023-02-12T06:41:00;103933.0;;;10.73;71.49
36834;BME280;48003;52.084;5.224;2023-02-12T06:42:37;103940.00000000001;;;10.72;71.41
36834;BME280;48003;52.084;5.224;2023-02-12T06:45:49;103934.99999999999;;;10.73;71.44
36834;BME280;48003;52.084;5.224;2023-02-12T06:47:26;103939.00000000001;;;10.73;71.3
36834;BME280;48003;52.084;5.224;2023-02-12T06:49:03;103936.99999999999;;;10.69;71.08
36834;BME280;48003;52.084;5.224;2023-02-12T06:52:16;103940.00000000001;;;10.68;71.02
36834;BME280;48003;52.084;5.224;2023-02-12T06:53:53;103940.00000000001;;;10.69;71.12
36834;BME280;48003;52.084;5.224;2023-02-12T06:55:30;103941.00000000001;;;10.67;70.84
36834;BME280;48003;52.084;5.224;2023-02-12T06:58:44;103942.0;;;10.67;70.63
36834;BME280;48003;52.084;5.224;2023-02-12T07:00:22;103943.0;;;10.68;70.86
36834;BME280;48003;52.084;5.224;2023-02-12T07:01:59;103942.0;;;10.7;70.99
36834;BME280;48003;52.084;5.224;2023-02-12T07:03:35;103947.0;;;10.76;71.02
36834;BME280;48003;52.084;5.224;2023-02-12T07:06:48;103949.0;;;10.92;70.49
36834;BME280;48003;52.084;5.224;2023-02-12T07:08:24;103951.0;;;10.77;70.33
36834;BME280;48003;52.084;5.224;2023-02-12T07:10:00;103955.0;;;10.59;70.92
36834;BME280;48003;52.084;5.224;2023-02-12T07:13:14;103959.99999999999;;;11.03;70.22
36834;BME280;48003;52.084;5.224;2023-02-12T07:14:51;103959.99999999999;;;10.86;70.74
36834;BME280;48003;52.084;5.224;2023-02-12T07:16:28;103958.99999999999;;;11.32;69.12
36834;BME280;48003;52.084;5.224;2023-02-12T07:19:41;103964.00000000001;;;11.4;68.83
36834;BME280;48003;52.084;5.224;2023-02-12T07:21:18;103965.00000000001;;;11.36;68.83
36834;BME280;48003;52.084;5.224;2023-02-12T07:22:55;103972.0;;;11.31;68.88
36834;BME280;48003;52.084;5.224;2023-02-12T07:24:31;103969.0;;;11.41;68.67
36834;BME280;48003;52.084;5.224;2023-02-12T07:27:48;103970.0;;;11.43;68.53
36834;BME280;48003;52.084;5.224;2023-02-12T07:29:24;103975.0;;;11.34;68.69
36834;BME280;48003;52.084;5.224;2023-02-12T07:31:06;103972.0;;;11.3;68.86
36834;BME280;48003;52.084;5.224;2023-02-12T07:34:19;103973.0;;;11.22;68.99
36834;BME280;48003;52.084;5.224;2023-02-12T07:35:59;103976.0;;;11.16;69.33
36834;BME280;48003;52.084;5.224;2023-02-12T07:37:35;103978.0;;;11.02;69.73
36834;BME280;48003;52.084;5.224;2023-02-12T07:39:12;103980.0;;;10.95;70.17
36834;BME280;48003;52.084;5.224;2023-02-12T07:42:26;103981.0;;;10.92;70.27
36834;BME280;48003;52.084;5.224;2023-02-12T07:44:05;103979.0;;;10.84;70.47
36834;BME280;48003;52.084;5.224;2023-02-12T07:45:42;103983.0;;;10.79;70.67
36834;BME280;48003;52.084;5.224;2023-02-12T07:48:56;103982.0;;;10.74;70.83
36834;BME280;48003;52.084;5.224;2023-02-12T07:50:33;103988.00000000001;;;10.7;70.74
36834;BME280;48003;52.084;5.224;2023-02-12T07:52:11;103992.0;;;10.71;70.83
36834;BME280;48003;52.084;5.224;2023-02-12T07:53:48;103995.0;;;10.96;70.39
36834;BME280;48003;52.084;5.224;2023-02-12T07:57:02;103995.0;;;10.99;70.33
36834;BME280;48003;52.084;5.224;2023-02-12T07:58:40;103999.0;;;11.14;69.58
36834;BME280;48003;52.084;5.224;2023-02-12T08:00:18;103999.0;;;11.16;69.55
36834;BME280;48003;52.084;5.224;2023-02-12T08:03:31;103999.0;;;11.31;69.3
36834;BME280;48003;52.084;5.224;2023-02-12T08:05:08;104002.0;;;11.3;69.09
36834;BME280;48003;52.084;5.224;2023-02-12T08:06:47;104002.0;;;11.24;68.91
36834;BME280;48003;52.084;5.224;2023-02-12T08:08:24;103998.0;;;11.06;69.77
36834;BME280;48003;52.084;5.224;2023-02-12T08:11:38;103998.0;;;10.96;70.02
36834;BME280;48003;52.084;5.224;2023-02-12T08:13:16;103999.0;;;10.9;70.48
36834;BME280;48003;52.084;5.224;2023-02-12T08:14:53;103996.0;;;10.89;70.5
36834;BME280;48003;52.084;5.224;2023-02-12T08:18:11;104000.0;;;10.99;70.22
36834;BME280;48003;52.084;5.224;2023-02-12T08:19:48;104008.0;;;11.09;69.83
36834;BME280;48003;52.084;5.224;2023-02-12T08:21:25;104008.99999999999;;;11.22;69.52
36834;BME280;48003;52.084;5.224;2023-02-12T08:23:03;104014.00000000001;;;11.34;69.08
36834;BME280;48003;52.084;5.224;2023-02-12T08:26:17;104009.99999999999;;;11.35;69.02
36834;BME280;48003;52.084;5.224;2023-02-12T08:27:54;104014.00000000001;;;11.39;68.53
36834;BME280;48003;52.084;5.224;2023-02-12T08:29:30;104018.0;;;11.38;68.55
36834;BME280;48003;52.084;5.224;2023-02-12T08:32:51;104022.0;;;11.36;68.69
36834;BME280;48003;52.084;5.224;2023-02-12T08:34:29;104029.0;;;11.29;68.91
36834;BME280;48003;52.084;5.224;2023-02-12T08:36:07;104025.0;;;11.33;68.81
36834;BME280;48003;52.084;5.224;2023-02-12T08:37:45;104024.0;;;11.6;67.95
36834;BME280;48003;52.084;5.224;2023-02-12T08:41:00;104027.0;;;11.54;67.81
36834;BME280;48003;52.084;5.224;2023-02-12T08:42:38;104031.0;;;11.51;68.27
36834;BME280;48003;52.084;5.224;2023-02-12T08:44:14;104033.0;;;11.51;68.31
36834;BME280;48003;52.084;5.224;2023-02-12T08:47:28;104036.99999999999;;;11.51;68.2
36834;BME280;48003;52.084;5.224;2023-02-12T08:49:06;104036.99999999999;;;11.63;67.69
36834;BME280;48003;52.084;5.224;2023-02-12T08:50:45;104033.0;;;11.45;68.2
36834;BME280;48003;52.084;5.224;2023-02-12T08:52:21;104033.99999999999;;;11.28;68.67
36834;BME280;48003;52.084;5.224;2023-02-12T08:55:37;104039.00000000001;;;11.41;68.5
36834;BME280;48003;52.084;5.224;2023-02-12T08:57:13;104045.0;;;11.32;68.74
36834;BME280;48003;52.084;5.224;2023-02-12T08:58:50;104042.0;;;11.21;69.27
36834;BME280;48003;52.084;5.224;2023-02-12T09:02:03;104043.0;;;11.2;69.38
36834;BME280;48003;52.084;5.224;2023-02-12T09:03:40;104039.00000000001;;;11.44;68.8
36834;BME280;48003;52.084;5.224;2023-02-12T09:05:17;104042.0;;;11.42;68.36
36834;BME280;48003;52.084;5.224;2023-02-12T09:08:32;104043.0;;;11.56;68.12
36834;BME280;48003;52.084;5.224;2023-02-12T09:10:10;104042.0;;;11.59;67.74
36834;BME280;48003;52.084;5.224;2023-02-12T09:11:46;104047.0;;;11.55;67.8
36834;BME280;48003;52.084;5.224;2023-02-12T09:13:24;104048.0;;;11.45;68.14
36834;BME280;48003;52.084;5.224;2023-02-12T09:16:39;104047.0;;;11.51;67.99
36834;BME280;48003;52.084;5.224;2023-02-12T09:18:16;104048.0;;;11.42;68.0
36834;BME280;48003;52.084;5.224;2023-02-12T09:19:53;104052.0;;;11.33;68.47
36834;BME280;48003;52.084;5.224;2023-02-12T09:23:08;104052.0;;;11.23;68.69
36834;BME280;48003;52.084;5.224;2023-02-12T09:24:46;104048.0;;;11.14;69.19
36834;BME280;48003;52.084;5.224;2023-02-12T09:26:25;104046.0;;;11.15;69.31
36834;BME280;48003;52.084;5.224;2023-02-12T09:28:02;104048.0;;;11.08;69.53
36834;BME280;48003;52.084;5.224;2023-02-12T09:31:17;104047.0;;;11.11;69.72
36834;BME280;48003;52.084;5.224;2023-02-12T09:32:55;104051.0;;;11.07;69.87
36834;BME280;48003;52.084;5.224;2023-02-12T09:34:33;104051.0;;;11.16;69.27
36834;BME280;48003;52.084;5.224;2023-02-12T09:37:52;104053.0;;;11.33;68.95
36834;BME280;48003;52.084;5.224;2023-02-12T09:39:29;104051.0;;;11.35;68.89
36834;BME280;48003;52.084;5.224;2023-02-12T09:41:22;104048.0;;;11.26;69.13
36834;BME280;48003;52.084;5.224;2023-02-12T09:43:14;104049.0;;;11.24;69.61
36834;BME280;48003;52.084;5.224;2023-02-12T09:44:57;104048.0;;;11.2;69.91
36834;BME280;48003;52.084;5.224;2023-02-12T09:46:43;104050.0;;;11.26;69.63
36834;BME280;48003;52.084;5.224;2023-02-12T09:50:30;104046.0;;;11.54;68.59
36834;BME280;48003;52.084;5.224;2023-02-12T09:52:24;104048.0;;;11.51;68.25
36834;BME280;48003;52.084;5.224;2023-02-12T09:54:06;104048.0;;;11.47;68.45
36834;BME280;48003;52.084;5.224;2023-02-12T09:55:46;104050.0;;;11.56;67.99
36834;BME280;48003;52.084;5.224;2023-02-12T09:57:25;104051.0;;;11.69;67.58
36834;BME280;48003;52.084;5.224;2023-02-12T10:00:44;104051.0;;;11.64;67.94
36834;BME280;48003;52.084;5.224;2023-02-12T10:02:22;104052.0;;;11.6;67.91
36834;BME280;48003;52.084;5.224;2023-02-12T10:04:00;104055.0;;;11.52;67.72
36834;BME280;48003;52.084;5.224;2023-02-12T10:05:40;104058.99999999999;;;11.46;67.63
36834;BME280;48003;52.084;5.224;2023-02-12T10:09:26;104052.0;;;11.22;68.22
36834;BME280;48003;52.084;5.224;2023-02-12T10:11:35;104049.0;;;11.1;69.09
36834;BME280;48003;52.084;5.224;2023-02-12T10:13:25;104048.0;;;11.32;68.45
36834;BME280;48003;52.084;5.224;2023-02-12T10:15:18;104047.0;;;11.54;67.88
36834;BME280;48003;52.084;5.224;2023-02-12T10:17:07;104049.0;;;11.62;67.3
36834;BME280;48003;52.084;5.224;2023-02-12T10:19:00;104051.0;;;11.55;67.63
36834;BME280;48003;52.084;5.224;2023-02-12T10:21:05;104053.0;;;11.49;67.89
36834;BME280;48003;52.084;5.224;2023-02-12T10:22:57;104052.0;;;11.08;69.03
36834;BME280;48003;52.084;5.224;2023-02-12T10:24:47;104053.0;;;11.12;69.0
36834;BME280;48003;52.084;5.224;2023-02-12T10:26:36;104049.0;;;11.43;67.95
36834;BME280;48003;52.084;5.224;2023-02-12T10:29:56;104047.0;;;11.83;67.06
36834;BME280;48003;52.084;5.224;2023-02-12T10:31:36;104048.0;;;11.87;66.86
36834;BME280;48003;52.084;5.224;2023-02-12T10:33:18;104059.99999999999;;;11.75;67.75
36834;BME280;48003;52.084;5.224;2023-02-12T10:34:56;104061.99999999999;;;11.58;67.84
36834;BME280;48003;52.084;5.224;2023-02-12T10:38:20;104059.99999999999;;;11.76;67.19
36834;BME280;48003;52.084;5.224;2023-02-12T10:40:03;104052.0;;;11.85;67.12
36834;BME280;48003;52.084;5.224;2023-02-12T10:41:43;104052.0;;;11.91;66.27
36834;BME280;48003;52.084;5.224;2023-02-12T10:43:22;104057.0;;;11.28;68.27
36834;BME280;48003;52.084;5.224;2023-02-12T10:46:36;104058.99999999999;;;11.29;68.37
36834;BME280;48003;52.084;5.224;2023-02-12T10:48:17;104058.99999999999;;;11.84;66.44